LSZB/BRN METAR and TAF weather

Enter ICAO airport designator
Station Type Date Time Source
LSZB METAR 2020/07/07 23:50 UTC NOAA

LSZB 072350Z AUTO VRB01KT CAVOK 10/10 Q1019


Station Type Date Time Source
LSZB Decoded METAR 2020/07/07 23:50 UTC NOAA

Bern / Belp , Switzerland (LSZB) 46-55N 007-30E
Jul 07, 2020 - 07:50 PM EDT / 2020.07.07 2350 UTC
Wind: Variable at 1 MPH (1 KT):0
Visibility: greater than 7 mile(s):0
Temperature: 50 F (10 C)
Dew Point: 50 F (10 C)
Relative Humidity: 100%
Pressure (altimeter): 30.09 in. Hg (1019 hPa)
ob: LSZB 072350Z AUTO VRB01KT CAVOK 10/10 Q1019
cycle: 0

Station Type Date Time Source
LSZB TAF 2014/12/22 20:03 UTC NOAA

TAF
AMD TAF
AMD LSZB 222054Z 2220/2224 CNL

Example: see airport list